createdAt,value
2023-02-18T00:00:05.319Z,15.77
2023-02-18T00:01:18.179Z,20.15
2023-02-18T00:02:29.716Z,17.60
2023-02-18T00:03:41.662Z,18.33
2023-02-18T00:04:54.558Z,12.55
2023-02-18T00:06:22.927Z,15.70
2023-02-18T00:07:37.670Z,22.23
2023-02-18T00:08:49.864Z,24.17
2023-02-18T00:10:01.309Z,16.08
2023-02-18T00:11:13.258Z,21.55
2023-02-18T00:12:24.709Z,15.77
2023-02-18T00:13:36.576Z,14.75
2023-02-18T00:14:47.941Z,17.10
2023-02-18T00:16:03.356Z,17.67
2023-02-18T00:17:14.836Z,17.75
2023-02-18T00:18:26.336Z,16.23
2023-02-18T00:19:37.794Z,16.77
2023-02-18T00:20:49.214Z,17.10
2023-02-18T00:22:00.666Z,17.77
2023-02-18T00:23:12.107Z,16.55
2023-02-18T00:24:23.557Z,17.02
2023-02-18T00:25:34.979Z,15.85
2023-02-18T00:26:46.484Z,15.45
2023-02-18T00:27:57.977Z,15.68
2023-02-18T00:29:09.461Z,14.60
2023-02-18T00:30:20.947Z,13.55
2023-02-18T00:31:36.476Z,12.85
2023-02-18T00:32:48.060Z,12.77
2023-02-18T00:33:59.741Z,11.80
2023-02-18T00:35:11.182Z,11.40
2023-02-18T00:36:22.956Z,10.25
2023-02-18T00:37:35.464Z,11.77
2023-02-18T00:38:55.665Z,11.48
2023-02-18T00:40:07.509Z,13.30
2023-02-18T00:41:19.650Z,9.55
2023-02-18T00:42:31.108Z,9.35
2023-02-18T00:43:42.770Z,8.88
2023-02-18T00:44:54.234Z,9.48
2023-02-18T00:46:06.621Z,9.57
2023-02-18T00:47:18.361Z,11.05
2023-02-18T00:48:29.879Z,7.45
2023-02-18T00:49:41.330Z,7.63
2023-02-18T00:50:52.749Z,8.27
2023-02-18T00:52:04.648Z,7.47
2023-02-18T00:53:16.055Z,10.07
2023-02-18T00:54:27.578Z,8.02
2023-02-18T00:55:40.270Z,7.90
2023-02-18T00:56:51.696Z,8.23
2023-02-18T00:58:03.136Z,8.07
2023-02-18T00:59:14.568Z,8.05
2023-02-18T01:00:26.497Z,7.97
2023-02-18T01:01:37.950Z,6.88
2023-02-18T01:02:53.971Z,7.05
2023-02-18T01:04:05.430Z,7.20
2023-02-18T01:05:16.954Z,7.05
2023-02-18T01:06:28.473Z,7.57
2023-02-18T01:07:39.961Z,7.25
2023-02-18T01:08:51.412Z,7.72
2023-02-18T01:10:03.004Z,7.95
2023-02-18T01:11:14.569Z,8.35
2023-02-18T01:12:26.091Z,8.13
2023-02-18T01:13:37.955Z,10.02
2023-02-18T01:14:49.397Z,9.57
2023-02-18T01:16:00.964Z,8.85
2023-02-18T01:17:12.413Z,8.75
2023-02-18T01:18:25.130Z,6.95
2023-02-18T01:19:36.544Z,8.60
2023-02-18T01:20:48.455Z,7.60
2023-02-18T01:22:00.169Z,8.07
2023-02-18T01:23:12.726Z,6.95
2023-02-18T01:24:24.341Z,8.70
2023-02-18T01:25:36.361Z,9.82
2023-02-18T01:26:47.888Z,7.93
2023-02-18T01:27:59.338Z,9.90
2023-02-18T01:29:10.774Z,8.95
2023-02-18T01:30:22.455Z,7.97
2023-02-18T01:31:34.232Z,9.63
2023-02-18T01:32:45.781Z,7.72
2023-02-18T01:33:57.241Z,8.00
2023-02-18T01:35:12.510Z,8.13
2023-02-18T01:36:23.982Z,7.60
2023-02-18T01:37:35.419Z,5.85
2023-02-18T01:38:46.872Z,7.95
2023-02-18T01:39:58.456Z,11.20
2023-02-18T01:41:10.388Z,9.88
2023-02-18T01:42:23.955Z,8.75
2023-02-18T01:43:35.488Z,10.95
2023-02-18T01:44:48.810Z,8.23
2023-02-18T01:46:03.939Z,6.53
2023-02-18T01:47:16.058Z,6.93
2023-02-18T01:48:30.756Z,6.90
2023-02-18T01:49:42.922Z,7.30
2023-02-18T01:50:57.184Z,11.38
2023-02-18T01:52:10.432Z,12.23
2023-02-18T01:53:25.105Z,11.57
2023-02-18T01:54:39.786Z,10.15
2023-02-18T01:55:51.252Z,11.63
2023-02-18T01:57:22.914Z,8.32
2023-02-18T01:58:34.912Z,8.15
2023-02-18T01:59:50.308Z,9.15
2023-02-18T02:01:02.057Z,6.07
2023-02-18T02:02:14.736Z,8.25
2023-02-18T02:03:26.213Z,14.75
2023-02-18T02:04:37.691Z,8.15
2023-02-18T02:05:49.163Z,8.90
2023-02-18T02:07:00.676Z,10.13
2023-02-18T02:08:12.112Z,9.95
2023-02-18T02:09:26.164Z,9.65
2023-02-18T02:10:40.432Z,12.20
2023-02-18T02:11:54.652Z,9.43
2023-02-18T02:13:08.788Z,7.90
2023-02-18T02:14:32.359Z,12.98
2023-02-18T02:16:07.380Z,11.52
2023-02-18T02:17:19.018Z,11.02
2023-02-18T02:18:45.529Z,11.20
2023-02-18T02:20:15.708Z,9.90
2023-02-18T02:21:30.141Z,11.73
2023-02-18T02:22:56.872Z,8.80
2023-02-18T02:24:27.121Z,13.32
2023-02-18T02:26:01.788Z,10.20
2023-02-18T02:27:28.463Z,9.13
2023-02-18T02:28:45.921Z,9.30
2023-02-18T02:30:15.796Z,9.52
2023-02-18T02:31:43.396Z,10.07
2023-02-18T02:33:03.307Z,8.45
2023-02-18T02:34:33.437Z,8.77
2023-02-18T02:36:02.270Z,8.60
2023-02-18T02:37:25.885Z,9.10
2023-02-18T02:38:40.177Z,10.77
2023-02-18T02:39:54.633Z,7.78
2023-02-18T02:41:13.064Z,8.57
2023-02-18T02:42:31.060Z,8.30
2023-02-18T02:43:53.510Z,6.97
2023-02-18T02:45:10.104Z,7.78
2023-02-18T02:46:31.065Z,7.00
2023-02-18T02:47:46.998Z,8.52
2023-02-18T02:49:16.634Z,7.45
2023-02-18T02:50:36.980Z,7.65
2023-02-18T02:52:05.886Z,9.32
2023-02-18T02:53:20.421Z,8.15
2023-02-18T02:54:31.953Z,8.43
2023-02-18T02:55:43.383Z,10.40
2023-02-18T02:57:13.342Z,9.77
2023-02-18T02:58:24.853Z,8.70
2023-02-18T02:59:37.828Z,10.10
2023-02-18T03:00:55.192Z,9.45
2023-02-18T03:02:25.094Z,10.60
2023-02-18T03:03:45.828Z,7.65
2023-02-18T03:05:03.314Z,9.00
2023-02-18T03:06:23.981Z,9.18
2023-02-18T03:07:55.527Z,7.65
2023-02-18T03:09:22.419Z,14.23
2023-02-18T03:10:40.908Z,7.82
2023-02-18T03:11:57.188Z,18.58
2023-02-18T03:13:27.273Z,27.23
2023-02-18T03:14:47.673Z,15.15
2023-02-18T03:16:19.404Z,10.73
2023-02-18T03:17:34.959Z,11.10
2023-02-18T03:18:55.963Z,12.20
2023-02-18T03:20:10.528Z,12.77
2023-02-18T03:21:21.959Z,12.77
2023-02-18T03:22:38.247Z,9.85
2023-02-18T03:23:56.327Z,10.48
2023-02-18T03:25:08.808Z,11.25
2023-02-18T03:26:21.249Z,10.73
2023-02-18T03:27:34.742Z,11.15
2023-02-18T03:28:47.004Z,12.18
2023-02-18T03:30:11.122Z,11.25
2023-02-18T03:31:25.983Z,8.05
2023-02-18T03:32:37.525Z,6.95
2023-02-18T03:34:09.211Z,5.90
2023-02-18T03:35:20.724Z,5.35
2023-02-18T03:36:33.092Z,5.88
2023-02-18T03:37:52.592Z,7.20
2023-02-18T03:39:17.674Z,6.82
2023-02-18T03:40:29.597Z,7.53
2023-02-18T03:41:41.742Z,6.93
2023-02-18T03:42:53.211Z,7.43
2023-02-18T03:44:06.288Z,6.28
2023-02-18T03:45:17.819Z,6.93
2023-02-18T03:46:30.072Z,7.75
2023-02-18T03:47:41.528Z,6.97
2023-02-18T03:48:53.476Z,7.90
2023-02-18T03:50:05.233Z,6.53
2023-02-18T03:51:16.762Z,6.28
2023-02-18T03:52:28.257Z,6.72
2023-02-18T03:53:39.729Z,5.70
2023-02-18T03:54:51.177Z,5.05
2023-02-18T03:56:02.626Z,7.95
2023-02-18T03:57:14.046Z,6.15
2023-02-18T03:58:25.513Z,5.53
2023-02-18T03:59:37.002Z,6.57
2023-02-18T04:00:48.407Z,5.28
2023-02-18T04:01:59.881Z,5.18
2023-02-18T04:03:11.343Z,4.35
2023-02-18T04:04:22.780Z,4.55
2023-02-18T04:05:34.262Z,5.93
2023-02-18T04:06:46.042Z,5.40
2023-02-18T04:07:57.553Z,5.57
2023-02-18T04:09:09.296Z,5.95
2023-02-18T04:10:22.754Z,6.65
2023-02-18T04:11:35.999Z,5.63
2023-02-18T04:12:47.644Z,5.18
2023-02-18T04:13:59.110Z,5.82
2023-02-18T04:15:10.667Z,7.22
2023-02-18T04:16:22.141Z,6.40
2023-02-18T04:17:33.785Z,4.47
2023-02-18T04:18:45.243Z,5.70
2023-02-18T04:19:56.713Z,5.95
2023-02-18T04:21:08.220Z,6.18
2023-02-18T04:22:19.630Z,5.32
2023-02-18T04:23:31.051Z,6.88
2023-02-18T04:24:42.575Z,5.18
2023-02-18T04:25:54.419Z,5.90
2023-02-18T04:27:05.934Z,6.28
2023-02-18T04:28:17.663Z,4.05
2023-02-18T04:29:29.244Z,5.40
2023-02-18T04:30:41.055Z,5.22
2023-02-18T04:31:52.554Z,6.05
2023-02-18T04:33:04.073Z,6.20
2023-02-18T04:34:15.519Z,5.50
2023-02-18T04:35:27.000Z,4.88
2023-02-18T04:36:38.480Z,5.53
2023-02-18T04:37:50.070Z,5.63
2023-02-18T04:39:01.510Z,5.75
2023-02-18T04:40:12.971Z,7.15
2023-02-18T04:41:24.408Z,5.95
2023-02-18T04:42:35.864Z,7.03
2023-02-18T04:43:47.350Z,5.82
2023-02-18T04:44:58.809Z,5.43
2023-02-18T04:46:10.570Z,6.50
2023-02-18T04:47:22.271Z,7.40
2023-02-18T04:48:35.105Z,6.68
2023-02-18T04:49:46.605Z,7.88
2023-02-18T04:50:58.084Z,5.43
2023-02-18T04:52:09.488Z,5.20
2023-02-18T04:53:21.019Z,6.95
2023-02-18T04:54:32.529Z,6.45
2023-02-18T04:55:44.031Z,6.18
2023-02-18T04:56:55.474Z,6.13
2023-02-18T04:58:06.942Z,7.00
2023-02-18T04:59:18.409Z,6.72
2023-02-18T05:00:29.981Z,5.82
2023-02-18T05:01:41.455Z,5.72
2023-02-18T05:02:52.900Z,5.88
2023-02-18T05:04:04.669Z,6.70
2023-02-18T05:05:16.195Z,6.03
2023-02-18T05:06:27.634Z,5.97
2023-02-18T05:07:39.239Z,6.00
2023-02-18T05:08:50.650Z,5.70
2023-02-18T05:10:02.129Z,7.00
2023-02-18T05:11:13.553Z,6.78
2023-02-18T05:12:25.016Z,7.22
2023-02-18T05:13:36.493Z,7.93
2023-02-18T05:14:47.934Z,7.63
2023-02-18T05:15:59.427Z,6.97
2023-02-18T05:17:10.899Z,6.07
2023-02-18T05:18:22.333Z,5.93
2023-02-18T05:19:33.783Z,6.63
2023-02-18T05:20:45.291Z,7.38
2023-02-18T05:21:56.774Z,5.50
2023-02-18T05:23:08.304Z,6.30
2023-02-18T05:24:19.738Z,7.10
2023-02-18T05:25:31.469Z,10.38
2023-02-18T05:26:42.887Z,8.10
2023-02-18T05:27:54.329Z,9.07
2023-02-18T05:29:06.225Z,8.80
2023-02-18T05:30:17.849Z,7.50
2023-02-18T05:31:29.537Z,7.72
2023-02-18T05:32:41.780Z,9.43
2023-02-18T05:33:55.583Z,7.35
2023-02-18T05:35:07.350Z,8.90
2023-02-18T05:36:18.828Z,8.50
2023-02-18T05:37:30.322Z,10.73
2023-02-18T05:38:41.797Z,10.80
2023-02-18T05:39:53.233Z,11.55
2023-02-18T05:41:04.756Z,10.15
2023-02-18T05:42:16.286Z,10.23
2023-02-18T05:43:27.759Z,9.02
2023-02-18T05:44:39.238Z,10.52
2023-02-18T05:45:50.703Z,12.82
2023-02-18T05:47:03.853Z,12.02
2023-02-18T05:48:15.375Z,9.93
2023-02-18T05:49:27.200Z,11.05
2023-02-18T05:50:38.663Z,12.30
2023-02-18T05:51:50.067Z,9.25
2023-02-18T05:53:01.725Z,12.27
2023-02-18T05:54:13.369Z,10.95
2023-02-18T05:55:24.856Z,10.65
2023-02-18T05:56:36.323Z,15.45
2023-02-18T05:57:47.776Z,19.00
2023-02-18T05:58:59.290Z,23.00
2023-02-18T06:00:11.205Z,20.98
2023-02-18T06:01:22.740Z,27.83
2023-02-18T06:02:34.203Z,24.45
2023-02-18T06:03:45.620Z,15.48
2023-02-18T06:04:57.137Z,14.57
2023-02-18T06:06:09.034Z,13.75
2023-02-18T06:07:20.761Z,13.98
2023-02-18T06:08:32.226Z,13.23
2023-02-18T06:09:43.636Z,12.30
2023-02-18T06:10:55.156Z,10.20
2023-02-18T06:12:06.737Z,9.75
2023-02-18T06:13:18.179Z,14.25
2023-02-18T06:14:29.648Z,15.98
2023-02-18T06:15:41.103Z,17.65
2023-02-18T06:16:52.592Z,16.77
2023-02-18T06:18:05.621Z,15.48
2023-02-18T06:19:17.116Z,18.92
2023-02-18T06:20:28.578Z,24.05
2023-02-18T06:21:40.053Z,25.63
2023-02-18T06:22:51.473Z,24.33
2023-02-18T06:24:02.943Z,23.10
2023-02-18T06:25:14.440Z,18.40
2023-02-18T06:26:25.961Z,15.95
2023-02-18T06:27:37.466Z,15.52
2023-02-18T06:28:48.911Z,17.55
2023-02-18T06:30:00.508Z,26.13
2023-02-18T06:31:12.122Z,36.38
2023-02-18T06:32:23.790Z,33.80
2023-02-18T06:33:35.482Z,31.65
2023-02-18T06:34:46.959Z,28.80
2023-02-18T06:35:59.654Z,29.30
2023-02-18T06:37:11.072Z,27.98
2023-02-18T06:38:22.603Z,23.27
2023-02-18T06:39:34.018Z,22.65
2023-02-18T06:40:46.883Z,20.13
2023-02-18T06:41:58.583Z,19.77
2023-02-18T06:43:10.037Z,20.73
2023-02-18T06:44:21.495Z,20.90
2023-02-18T06:45:32.891Z,22.25
2023-02-18T06:46:44.675Z,20.75
2023-02-18T06:47:56.109Z,21.98
2023-02-18T06:49:07.767Z,23.42
2023-02-18T06:50:19.624Z,22.08
2023-02-18T06:51:31.158Z,24.27
2023-02-18T06:52:42.569Z,24.90
2023-02-18T06:53:54.018Z,22.85
2023-02-18T06:55:06.172Z,24.98
2023-02-18T06:56:17.665Z,26.65
2023-02-18T06:57:29.146Z,25.00
2023-02-18T06:58:40.574Z,23.48
2023-02-18T06:59:53.065Z,23.25
2023-02-18T07:01:04.758Z,22.33
2023-02-18T07:02:16.299Z,22.35
2023-02-18T07:03:28.190Z,27.17
2023-02-18T07:04:39.675Z,31.95
2023-02-18T07:05:51.245Z,37.72
2023-02-18T07:07:02.699Z,41.10
2023-02-18T07:08:14.226Z,36.95
2023-02-18T07:09:25.739Z,35.05
2023-02-18T07:10:37.701Z,37.83
2023-02-18T07:11:49.248Z,36.03
2023-02-18T07:13:00.923Z,46.35
2023-02-18T07:14:12.499Z,42.25
2023-02-18T07:15:24.467Z,26.92
2023-02-18T07:16:36.018Z,12.88
2023-02-18T07:17:47.493Z,13.30
2023-02-18T07:18:58.981Z,10.68
2023-02-18T07:20:10.606Z,12.30
2023-02-18T07:21:22.109Z,14.93
2023-02-18T07:22:33.761Z,14.40
2023-02-18T07:23:45.291Z,13.15
2023-02-18T07:24:56.828Z,12.82
2023-02-18T07:26:10.411Z,17.70
2023-02-18T07:27:22.287Z,17.63
2023-02-18T07:28:33.801Z,11.77
2023-02-18T07:29:45.220Z,12.55
2023-02-18T07:30:56.689Z,16.55
2023-02-18T07:32:08.270Z,14.80
2023-02-18T07:33:19.713Z,14.98
2023-02-18T07:34:31.246Z,16.33
2023-02-18T07:35:42.787Z,18.75
2023-02-18T07:36:54.332Z,14.68
2023-02-18T07:38:05.980Z,11.80
2023-02-18T07:39:20.811Z,9.23
2023-02-18T07:40:32.361Z,9.00
2023-02-18T07:41:43.823Z,12.45
2023-02-18T07:42:55.414Z,10.40
2023-02-18T07:44:07.081Z,11.13
2023-02-18T07:45:18.914Z,12.73
2023-02-18T07:46:30.455Z,13.82
2023-02-18T07:47:42.670Z,12.48
2023-02-18T07:48:54.188Z,13.23
2023-02-18T07:50:06.332Z,11.88
2023-02-18T07:51:17.814Z,30.92
2023-02-18T07:52:29.290Z,14.60
2023-02-18T07:53:40.848Z,15.57
2023-02-18T07:54:52.297Z,14.63
2023-02-18T07:56:04.601Z,14.38
2023-02-18T07:57:16.115Z,16.73
2023-02-18T07:58:28.643Z,18.15
2023-02-18T07:59:40.181Z,14.60
2023-02-18T08:00:52.031Z,13.48
2023-02-18T08:02:05.406Z,13.77
2023-02-18T08:03:17.820Z,11.23
2023-02-18T08:04:29.374Z,11.05
2023-02-18T08:05:41.182Z,17.25
2023-02-18T08:06:52.641Z,12.95
2023-02-18T08:08:04.200Z,15.30
2023-02-18T08:09:16.118Z,12.85
2023-02-18T08:10:27.670Z,14.23
2023-02-18T08:11:39.240Z,11.75
2023-02-18T08:12:50.727Z,11.85
2023-02-18T08:14:02.253Z,10.45
2023-02-18T08:15:14.072Z,10.15
2023-02-18T08:16:25.909Z,11.63
2023-02-18T08:17:37.447Z,14.15
2023-02-18T08:18:49.806Z,13.30
2023-02-18T08:20:01.434Z,12.68
2023-02-18T08:21:13.035Z,11.73
2023-02-18T08:22:24.516Z,10.57
2023-02-18T08:23:35.980Z,11.57
2023-02-18T08:24:47.412Z,12.70
2023-02-18T08:25:58.945Z,12.30
2023-02-18T08:27:10.639Z,10.02
2023-02-18T08:28:23.017Z,11.82
2023-02-18T08:29:34.512Z,9.20
2023-02-18T08:30:46.924Z,10.13
2023-02-18T08:33:57.062Z,9.68
2023-02-18T08:35:26.830Z,10.18
2023-02-18T08:36:38.352Z,8.63
2023-02-18T08:38:17.960Z,10.70
2023-02-18T08:39:33.705Z,7.53
2023-02-18T08:40:45.359Z,7.57
2023-02-18T08:41:57.038Z,8.55
2023-02-18T08:43:08.906Z,8.88
2023-02-18T08:44:20.664Z,8.82
2023-02-18T08:45:33.182Z,8.25
2023-02-18T08:46:48.211Z,10.00
2023-02-18T08:48:17.599Z,10.02
2023-02-18T08:49:31.217Z,11.30
2023-02-18T08:52:37.978Z,7.63
2023-02-18T08:53:49.625Z,8.30
2023-02-18T08:55:01.188Z,10.85
2023-02-18T08:56:20.554Z,9.75
2023-02-18T08:57:34.838Z,10.48
2023-02-18T08:58:53.488Z,9.77
2023-02-18T09:00:05.957Z,10.13
2023-02-18T09:01:17.529Z,9.52
2023-02-18T09:02:29.407Z,9.98
2023-02-18T09:03:41.077Z,11.13
2023-02-18T09:04:52.523Z,9.75
2023-02-18T09:06:04.472Z,10.80
2023-02-18T09:07:16.092Z,10.48
2023-02-18T09:08:28.313Z,10.80
2023-02-18T09:09:39.736Z,11.02
2023-02-18T09:10:54.485Z,10.27
2023-02-18T09:12:06.141Z,11.70
2023-02-18T09:13:17.657Z,11.20
2023-02-18T09:14:29.140Z,10.73
2023-02-18T09:15:40.560Z,12.07
2023-02-18T09:16:52.280Z,11.90
2023-02-18T09:18:03.773Z,10.70
2023-02-18T09:19:15.206Z,11.88
2023-02-18T09:20:27.452Z,10.52
2023-02-18T09:21:38.969Z,10.90
2023-02-18T09:22:50.492Z,11.88
2023-02-18T09:24:02.208Z,13.27
2023-02-18T09:25:13.728Z,10.32
2023-02-18T09:26:27.324Z,11.10
2023-02-18T09:27:38.854Z,9.60
2023-02-18T09:28:50.927Z,10.45
2023-02-18T09:30:02.567Z,17.13
2023-02-18T09:31:16.229Z,14.82
2023-02-18T09:32:35.610Z,14.65
2023-02-18T09:33:49.806Z,14.65
2023-02-18T09:35:04.593Z,13.00
2023-02-18T09:36:16.112Z,10.80
2023-02-18T09:37:27.540Z,12.80
2023-02-18T09:38:38.980Z,12.88
2023-02-18T09:39:50.500Z,12.13
2023-02-18T09:41:03.403Z,9.85
2023-02-18T09:42:16.682Z,11.45
2023-02-18T09:43:33.590Z,10.95
2023-02-18T09:44:55.576Z,13.40
2023-02-18T09:46:11.086Z,16.05
2023-02-18T09:47:30.736Z,12.35
2023-02-18T09:48:43.851Z,12.27
2023-02-18T09:49:58.601Z,11.90
2023-02-18T09:51:11.676Z,11.35
2023-02-18T09:52:29.972Z,12.93
2023-02-18T09:53:41.911Z,12.60
2023-02-18T09:54:53.696Z,13.25
2023-02-18T09:56:06.332Z,12.85
2023-02-18T09:57:35.343Z,13.50
2023-02-18T09:58:47.601Z,12.48
2023-02-18T10:00:05.435Z,14.15
2023-02-18T10:01:29.219Z,11.90
2023-02-18T10:02:50.702Z,9.13
2023-02-18T10:04:04.706Z,8.30
2023-02-18T10:05:16.401Z,8.68
2023-02-18T10:06:31.305Z,8.45
2023-02-18T10:07:42.925Z,8.75
2023-02-18T10:08:55.040Z,9.95
2023-02-18T10:10:35.560Z,10.98
2023-02-18T10:11:50.661Z,8.13
2023-02-18T10:13:02.937Z,8.05
2023-02-18T10:14:15.022Z,6.70
2023-02-18T10:15:29.148Z,7.95
2023-02-18T10:16:40.906Z,9.32
2023-02-18T10:17:52.956Z,7.75
2023-02-18T10:19:08.864Z,7.68
2023-02-18T10:20:23.024Z,7.57
2023-02-18T10:21:36.208Z,8.50
2023-02-18T10:22:47.674Z,7.50
2023-02-18T10:24:04.574Z,7.68
2023-02-18T10:25:19.087Z,8.25
2023-02-18T10:26:31.633Z,10.15
2023-02-18T10:27:43.148Z,9.73
2023-02-18T10:28:54.820Z,8.25
2023-02-18T10:30:15.157Z,8.23
2023-02-18T10:31:34.622Z,8.77
2023-02-18T10:32:46.695Z,9.55
2023-02-18T10:33:58.525Z,6.85
2023-02-18T10:35:27.946Z,6.80
2023-02-18T10:36:39.366Z,5.05
2023-02-18T10:37:53.939Z,6.75
2023-02-18T10:39:32.677Z,8.70
2023-02-18T10:40:44.349Z,7.22
2023-02-18T10:41:59.132Z,6.35
2023-02-18T10:43:16.414Z,6.55
2023-02-18T10:44:49.545Z,7.40
2023-02-18T10:46:11.607Z,6.15
2023-02-18T10:47:39.156Z,6.13
2023-02-18T10:48:50.582Z,5.22
2023-02-18T10:50:14.459Z,7.15
2023-02-18T10:51:28.486Z,6.00
2023-02-18T10:52:44.412Z,5.28
2023-02-18T10:53:55.968Z,5.65
2023-02-18T10:55:09.551Z,6.43
2023-02-18T10:56:32.546Z,8.93
2023-02-18T10:57:51.797Z,7.78
2023-02-18T10:59:13.717Z,4.90
2023-02-18T11:00:27.411Z,5.63
2023-02-18T11:01:39.952Z,4.72
2023-02-18T11:03:09.848Z,4.85
2023-02-18T11:04:23.498Z,6.00
2023-02-18T11:05:36.028Z,5.78
2023-02-18T11:06:49.257Z,7.68
2023-02-18T11:08:02.679Z,6.40
2023-02-18T11:09:34.615Z,6.57
2023-02-18T11:10:46.764Z,5.88
2023-02-18T11:12:08.278Z,6.47
2023-02-18T11:13:28.061Z,6.28
2023-02-18T11:14:40.859Z,5.53
2023-02-18T11:16:00.566Z,4.32
2023-02-18T11:17:17.701Z,5.32
2023-02-18T11:18:31.025Z,5.55
2023-02-18T11:19:42.532Z,6.13
2023-02-18T11:21:04.853Z,6.03
2023-02-18T11:22:19.214Z,5.70
2023-02-18T11:23:32.092Z,4.95
2023-02-18T11:24:48.242Z,5.35
2023-02-18T11:26:07.720Z,5.43
2023-02-18T11:27:22.986Z,4.65
2023-02-18T11:28:42.787Z,4.32
2023-02-18T11:29:55.988Z,5.63
2023-02-18T11:31:08.352Z,4.95
2023-02-18T11:32:20.159Z,4.93
2023-02-18T11:33:37.865Z,4.93
2023-02-18T11:34:50.176Z,3.72
2023-02-18T11:36:13.454Z,4.78
2023-02-18T11:37:25.166Z,5.47
2023-02-18T11:38:41.776Z,4.90
2023-02-18T11:39:54.470Z,5.43
2023-02-18T11:41:11.591Z,5.53
2023-02-18T11:42:25.034Z,5.30
2023-02-18T11:43:36.778Z,5.50
2023-02-18T11:44:50.666Z,5.72
2023-02-18T11:46:28.414Z,5.45
2023-02-18T11:47:40.093Z,5.95
2023-02-18T11:48:51.745Z,6.00
2023-02-18T11:50:09.051Z,6.57
2023-02-18T11:51:20.563Z,6.18
2023-02-18T11:52:42.377Z,5.85
2023-02-18T11:53:53.862Z,5.95
2023-02-18T11:55:14.984Z,5.43
2023-02-18T11:56:27.895Z,5.10
2023-02-18T11:57:41.345Z,5.28
2023-02-18T11:58:53.173Z,4.72
2023-02-18T12:00:06.591Z,3.65
2023-02-18T12:01:38.569Z,5.10
2023-02-18T12:02:51.013Z,4.88
2023-02-18T12:04:22.752Z,5.78
2023-02-18T12:05:34.392Z,6.00
2023-02-18T12:06:48.619Z,5.55
2023-02-18T12:08:03.533Z,6.57
2023-02-18T12:09:29.710Z,5.65
2023-02-18T12:10:42.995Z,5.75
2023-02-18T12:12:00.207Z,5.38
2023-02-18T12:13:22.583Z,6.45
2023-02-18T12:14:35.993Z,7.40
2023-02-18T12:15:47.645Z,6.07
2023-02-18T12:17:08.617Z,4.68
2023-02-18T12:18:23.165Z,3.95
2023-02-18T12:19:46.958Z,4.45
2023-02-18T12:21:09.862Z,4.60
2023-02-18T12:22:24.370Z,4.50
2023-02-18T12:23:43.200Z,3.83
2023-02-18T12:25:09.810Z,5.22
2023-02-18T12:26:30.492Z,3.38
2023-02-18T12:27:41.939Z,4.40
2023-02-18T12:28:56.561Z,3.47
2023-02-18T12:30:28.346Z,3.63
2023-02-18T12:31:39.907Z,3.70
2023-02-18T12:32:56.516Z,4.93
2023-02-18T12:34:27.192Z,3.25
2023-02-18T12:35:45.600Z,4.38
2023-02-18T12:37:03.594Z,5.22
2023-02-18T12:38:35.472Z,4.28
2023-02-18T12:40:01.567Z,4.10
2023-02-18T12:41:12.998Z,3.10
2023-02-18T12:42:29.309Z,3.28
2023-02-18T12:43:43.824Z,3.92
2023-02-18T12:44:55.925Z,4.18
2023-02-18T12:46:25.612Z,4.22
2023-02-18T12:48:00.271Z,4.43
2023-02-18T12:49:24.703Z,4.13
2023-02-18T12:50:43.398Z,4.78
2023-02-18T12:51:54.822Z,4.53
2023-02-18T12:53:24.806Z,4.20
2023-02-18T12:54:54.082Z,3.80
2023-02-18T12:56:28.770Z,3.63
2023-02-18T12:57:48.850Z,3.75
2023-02-18T12:59:23.515Z,4.22
2023-02-18T13:00:50.276Z,4.20
2023-02-18T13:02:07.679Z,4.35
2023-02-18T13:03:37.645Z,3.78
2023-02-18T13:04:49.048Z,5.20
2023-02-18T13:06:08.360Z,4.88
2023-02-18T13:07:23.200Z,5.30
2023-02-18T13:08:40.648Z,5.18
2023-02-18T13:10:01.259Z,5.63
2023-02-18T13:11:27.941Z,5.57
2023-02-18T13:12:44.317Z,4.40
2023-02-18T13:14:01.388Z,3.42
2023-02-18T13:15:20.015Z,3.90
2023-02-18T13:16:33.529Z,3.70
2023-02-18T13:17:47.052Z,4.87
2023-02-18T13:19:18.869Z,4.55
2023-02-18T13:20:49.477Z,4.13
2023-02-18T13:22:04.729Z,5.20
2023-02-18T13:23:21.279Z,4.90
2023-02-18T13:24:37.791Z,5.03
2023-02-18T13:26:08.212Z,3.47
2023-02-18T13:27:25.767Z,4.43
2023-02-18T13:29:00.267Z,3.30
2023-02-18T13:30:21.156Z,3.08
2023-02-18T13:31:32.928Z,2.90
2023-02-18T13:32:47.588Z,5.22
2023-02-18T13:34:03.991Z,4.07
2023-02-18T13:35:18.374Z,3.97
2023-02-18T13:36:49.006Z,4.35
2023-02-18T13:38:12.806Z,4.73
2023-02-18T13:39:24.927Z,5.37
2023-02-18T13:40:37.041Z,3.45
2023-02-18T13:41:49.575Z,4.30
2023-02-18T13:43:19.860Z,4.10
2023-02-18T13:44:31.717Z,3.38
2023-02-18T13:45:43.326Z,3.85
2023-02-18T13:46:59.320Z,4.93
2023-02-18T13:48:22.803Z,4.75
2023-02-18T13:49:35.044Z,4.82
2023-02-18T13:50:46.649Z,5.70
2023-02-18T13:51:59.117Z,5.90
2023-02-18T13:53:13.040Z,5.68
2023-02-18T13:54:45.170Z,3.97
2023-02-18T13:56:09.590Z,5.63
2023-02-18T13:57:22.097Z,6.37
2023-02-18T13:58:36.389Z,6.50
2023-02-18T13:59:47.982Z,6.45
2023-02-18T14:01:02.372Z,5.87
2023-02-18T14:02:20.875Z,6.50
2023-02-18T14:03:36.197Z,3.50
2023-02-18T14:04:57.754Z,9.13
2023-02-18T14:06:29.445Z,6.90
2023-02-18T14:07:51.003Z,4.22
2023-02-18T14:09:22.574Z,4.70
2023-02-18T14:10:36.920Z,4.45
2023-02-18T14:11:49.545Z,4.63
2023-02-18T14:13:04.276Z,5.07
2023-02-18T14:14:28.362Z,4.00
2023-02-18T14:16:09.220Z,4.70
2023-02-18T14:17:21.003Z,4.90
2023-02-18T14:18:36.859Z,4.77
2023-02-18T14:20:00.803Z,4.80
2023-02-18T14:21:13.309Z,5.47
2023-02-18T14:22:34.820Z,4.47
2023-02-18T14:23:59.182Z,5.00
2023-02-18T14:25:14.416Z,3.87
2023-02-18T14:26:52.614Z,4.13
2023-02-18T14:28:24.233Z,4.27
2023-02-18T14:29:35.800Z,4.67
2023-02-18T14:30:47.539Z,5.07
2023-02-18T14:32:05.094Z,4.90
2023-02-18T14:33:18.925Z,4.77
2023-02-18T14:34:49.543Z,4.47
2023-02-18T14:36:01.004Z,3.80
2023-02-18T14:37:30.948Z,4.47
2023-02-18T14:38:54.307Z,5.35
2023-02-18T14:40:17.639Z,4.67
2023-02-18T14:41:47.448Z,5.00
2023-02-18T14:43:01.773Z,5.78
2023-02-18T14:44:25.184Z,5.10
2023-02-18T14:45:45.787Z,6.07
2023-02-18T14:47:06.539Z,5.57
2023-02-18T14:48:41.682Z,6.00
2023-02-18T14:49:54.984Z,5.37
2023-02-18T14:51:07.164Z,3.47
2023-02-18T14:52:27.847Z,6.23
2023-02-18T14:53:45.844Z,6.07
2023-02-18T14:55:01.007Z,7.10
2023-02-18T14:56:14.505Z,6.83
2023-02-18T14:57:31.839Z,5.90
2023-02-18T14:58:47.375Z,6.07
2023-02-18T14:59:59.710Z,18.43
2023-02-18T15:01:19.268Z,14.30
2023-02-18T15:02:35.677Z,8.38
2023-02-18T15:03:50.756Z,8.98
2023-02-18T15:05:15.999Z,6.82
2023-02-18T15:06:34.785Z,7.63
2023-02-18T15:07:59.325Z,7.40
2023-02-18T15:09:14.299Z,9.13
2023-02-18T15:10:32.021Z,9.82
2023-02-18T15:11:45.779Z,10.38
2023-02-18T15:12:57.328Z,9.93
2023-02-18T15:14:11.312Z,9.85
2023-02-18T15:15:23.104Z,5.55
2023-02-18T15:16:34.751Z,5.45
2023-02-18T15:17:48.414Z,5.85
2023-02-18T15:19:05.127Z,7.32
2023-02-18T15:20:16.886Z,6.38
2023-02-18T15:21:29.755Z,6.03
2023-02-18T15:22:41.627Z,5.53
2023-02-18T15:23:53.483Z,4.80
2023-02-18T15:25:05.676Z,4.15
2023-02-18T15:26:17.701Z,4.22
2023-02-18T15:27:31.231Z,4.32
2023-02-18T15:28:51.618Z,4.60
2023-02-18T15:30:13.578Z,5.97
2023-02-18T15:31:27.164Z,5.93
2023-02-18T15:32:38.821Z,4.60
2023-02-18T15:33:50.497Z,4.75
2023-02-18T15:35:03.666Z,4.03
2023-02-18T15:36:15.470Z,3.88
2023-02-18T15:37:27.203Z,4.03
2023-02-18T15:38:41.796Z,3.42
2023-02-18T15:39:53.635Z,4.10
2023-02-18T15:41:05.254Z,4.40
2023-02-18T15:42:24.728Z,4.88
2023-02-18T15:43:37.346Z,5.22
2023-02-18T15:44:50.670Z,4.20
2023-02-18T15:46:05.110Z,4.13
2023-02-18T15:47:17.620Z,5.43
2023-02-18T15:48:33.369Z,6.20
2023-02-18T15:49:51.024Z,8.38
2023-02-18T15:51:15.944Z,36.88
2023-02-18T15:52:30.924Z,25.98
2023-02-18T15:53:43.600Z,13.25
2023-02-18T15:54:55.611Z,13.63
2023-02-18T15:56:10.220Z,11.10
2023-02-18T15:57:24.941Z,8.70
2023-02-18T15:58:37.165Z,9.93
2023-02-18T15:59:56.458Z,8.55
2023-02-18T16:01:23.900Z,14.75
2023-02-18T16:02:35.687Z,15.40
2023-02-18T16:03:47.196Z,6.38
2023-02-18T16:05:00.793Z,7.32
2023-02-18T16:06:29.738Z,5.10
2023-02-18T16:07:57.675Z,4.38
2023-02-18T16:09:31.699Z,4.63
2023-02-18T16:10:53.488Z,16.83
2023-02-18T16:12:06.400Z,27.50
2023-02-18T16:13:19.072Z,28.98
2023-02-18T16:14:47.553Z,21.85
2023-02-18T16:16:01.101Z,17.20
2023-02-18T16:17:14.668Z,15.93
2023-02-18T16:18:26.282Z,29.65
2023-02-18T16:20:04.896Z,14.80
2023-02-18T16:21:17.877Z,11.55
2023-02-18T16:22:29.745Z,11.63
2023-02-18T16:23:44.474Z,10.90
2023-02-18T16:24:59.595Z,11.13
2023-02-18T16:26:13.270Z,24.73
2023-02-18T16:27:29.124Z,32.30
2023-02-18T16:28:42.438Z,16.83
2023-02-18T16:29:59.880Z,12.40
2023-02-18T16:31:12.361Z,34.50